Apsley, Canada
Current Conditions -  °F | °C
As of 11:00 PM on Saturday 25 Oct 2014 (Local Time) from CYPQ Reporting Station
Few Clouds Few Clouds  
Wind Chill: 50°   Ceiling: Unl
Heat Index: 50°   Visibility: 9mi
Dew Point: 37°   Wind: 14mph
Humidity: 62%   Direction: 290°WNW
Pressure: 29.56"   Gusts: 24mph
Location:  44.75°N, 78.08°W
Report Text: CYPQ 260300Z AUTO 29012G21KT 9SM FEW055 10/03 A2956 RMK SLP011
Loading
Personal Weather Stations






























Interactive Weather Map
Tropical Storm Tracking
New forecast layout! Learn more

10-Day Weather Forecast

Advertisements
Track Severe Weather on mobile